< < Back
Terminal Aerodrome Forecast


Current Version              Previous Versions:   1  2  3  4  5  6  7  8  9  

Terminal Aerodrome Forecast

640
FTUS44 KOHX 230500
TAFCSV
TAF
KCSV 230520Z 2306/2406 31010KT P6SM BKN035
     FM230900 35006KT P6SM SKC
     FM231500 03007KT P6SM SCT070
     FM240000 00000KT P6SM SKC=



Latest METAR

535
SAUS70 KWBC 240656
MTRCSV
METAR KCSV 240653Z AUTO 03004KT 10SM CLR 08/00 A3000 RMK AO2 SLP152
T00780000


USA.gov is the U.S. government's official web portal to all federal, state and local government web resources and services.